Terminal Aerodrome Forecast
Issued by NWS Blacksburg, VA

Home | Current Version | Previous Version | Text Only | Print | Product List | Glossary On
Versions: 1 2 3 4 5 6 7 8 9 10 11 12 13 14 15 16 17 18 19 20 21 22 23 24 25 26 27 28 29 30 31
532
FTUS41 KRNK 230700 AAB
TAFLYH
TAF AMD
KLYH 230700Z 2307/2406 13007KT P6SM BKN025 OVC045
     FM231500 10009KT P6SM VCSH OVC020
     FM231800 13012KT P6SM OVC035
     FM232300 14009KT 1SM +SHRA OVC025 WS020/16040KT
     FM240300 15009KT 3SM SHRA OVC030=

USA.gov is the U.S. government's official web portal to all federal, state and local government web resources and services.